AirNav   Everest Fuels
 
 630 users online  

1IN4 Robinson Airpark
Elizabeth, Indiana, USA

GOING TO ELIZABETH?


FAA INFORMATION EFFECTIVE 18 JULY 2019

Location

FAA Identifier: 1IN4
Lat/Long: 38-08-35.0000N / 085-59-16.0000W
38-08.583333N / 085-59.266667W
38.1430556 / -85.9877778
(estimated)
Elevation: 775 ft. / 236 m (estimated)
Variation: 03W (1995)
From city: 1 mile NW of ELIZABETH, IN
Time zone: UTC -4 (UTC -5 during Standard Time)
Zip code: 47117

Airport Operations

Airport use: Private use. Permission required prior to landing
Activation date: 02/1998
Control tower: no
ARTCC: INDIANAPOLIS CENTER
FSS: TERRE HAUTE FLIGHT SERVICE STATION
Attendance: CONTINUOUS
Segmented circle: no

Airport Communications

WX ASOS at SDF (12 nm E): PHONE 502-367-1492
WX ASOS at LOU (16 nm E): 118.275 (502-473-0693)
WX AWOS-3 at JVY (18 nm NE): 118.575 (812-246-1278)

Nearby radio navigation aids

VOR radial/distance  VOR name  Freq  Var
FTKr358/14.2FORT KNOX VOR/DME109.6001W
BQMr255/16.1BOWMAN VOR/DME112.2004W
MYSr040/(19.2)MYSTIC VOR108.2001W
IIUr276/19.5LOUISVILLE VORTAC114.8001E
EWOr333/34.0NEW HOPE VOR/DME110.8001E

 
NDB name  Hdg/Dist  Freq  Var  ID
GODMAN000/11.139603WGOI --. --- ..

Airport Services

Runway Information

Runway 9/27

Dimensions: 2000 x 30 ft. / 610 x 9 m
Surface: turf, in good condition
RUNWAY 9  RUNWAY 27
Traffic pattern: leftleft
Obstructions: none30 ft. trees, 500 ft. from runway

Airport Ownership and Management from official FAA records

Ownership: Privately-owned
Owner: JAMES E. ROBINSON
7300 PINE SHORE DRIVE
ELIZABETH, IN 47117
Phone 812-969-2859
Manager: JAMES E. ROBINSON
7300 PINE SHORE DRIVE
ELIZABETH, IN 47117
Phone 812-969-2859

Additional Remarks

FOR CD CTC LOUISVILLE APCH AT 502-375-7499

Instrument Procedures

There are no published instrument procedures at 1IN4.

Some nearby airports with instrument procedures:

KSDF - Louisville International Airport-Standiford Field (12 nm E)
KFTK - Godman Army Airfield (14 nm S)
KLOU - Bowman Field Airport (16 nm E)
KJVY - Clark Regional Airport (18 nm NE)
KEKX - Addington Field Airport (28 nm S)
 
Loc | Ops | Rwys | IFR | FBO | Links
Com | Nav | Svcs | Stats | Notes

City of Findlay
 
Area around 1IN4 (Robinson Airpark)
 
Road maps at: MapQuest Bing Google
 
Aerial photo
No photo
 
Sectional chart

 
Airport distance calculator
Flying to Robinson Airpark? Find the distance to fly.

From to 1IN4

Sunrise and sunset
Times for 19-Jul-2019
 Local
(UTC-4)
 Zulu
(UTC)
Morning civil twilight06:0710:07
Sunrise06:3710:37
Sunset21:0301:03
Evening civil twilight21:3401:34

Current date and time
Zulu (UTC)  19-Jul-2019 04:55:11
Local (UTC-4)  19-Jul-2019 00:55:11
 
METAR
KSDF 
12nm E 
190356Z 22008KT 10SM FEW250 28/24 A2996 RMK AO2 SLP139 T02830239
KFTK 
16nm S 
190356Z AUTO 19005KT 10SM CLR 25/25 A2999 RMK AO2 SLP151 T02540254
KLOU 
16nm E 
190353Z AUTO 22010KT 10SM CLR 28/23 A2996 RMK AO2 SLP138 T02830233
KJVY 
18nm NE 
190435Z AUTO 21007KT 10SM CLR 27/24 A2995 RMK AO2 T02740236
TAF
KSDF 
12nm E 
181727Z 1818/1924 25007KT P6SM SCT040 SCT150 FM190000 21006KT P6SM SCT250 FM191300 23008KT P6SM FEW030
KFTK 
16nm S 
190100Z 1901/2007 26006KT 9999 FEW030 BKN050 QNH2993INS BECMG 1913/1914 24012KT 9999 SCT040 BKN100 QNH2992INS BECMG 1923/1924 22006KT 9999 FEW060 QNH2993INS TX34/1922Z TN23/1908Z
NOTAMs
Click for the latest NOTAMs
NOTAMs are issued by the DoD/FAA and will open in a separate window not controlled by AirNav.

 

 
 

Would you like to see your business listed on this page?

 If your business provides an interesting product or service to pilots, flight crews, aircraft, or users of the Robinson Airpark, you should consider listing it here.  To start the listing process, click on the button below
 
Add a business
 

Other Pages about Robinson Airpark

Update a link
 
Copyright © AirNav, LLC. All rights reserved. Privacy Policy  Contact